Airfield :







YOU CAN JOIN US ON...

 
LOGIN :

Register | Disclaimer

   EN    FR    IT 

 









Legend :    VFR   Marginal VFR   IFR   Intensive IFR   Very Intensive IFR
Visi :
Ceiling :
>= 8 km
>= 3000ft
5 to 8 km
1000 to 3000 ft
1500m to 5 km
500 to 1000 ft
800 to 1500m
200 to 500 ft
< 800m
< 200 ft
Symbols :   Thunderstorms  Fog  Heavy snow  Heavy precipitations  Wind > 20 kt






- Airport Elevation : 39 ft
- IATA code : YNA


CYNA - Natashquan

CURRENT METAR :
  • 240337Z AUTO 10020G27KT 2 1/4SM RA BR BKN008 OVC031 06/06 A2993 RMK VIS VRB 1 3/4-3 SLP136

EXPIRED METARs :
  • 240325Z AUTO 10019G28KT 2SM RA BR BKN006 OVC033 06/06 A2992 RMK SLP134
  • 240318Z AUTO 10020G28KT 2 1/4SM RA BR SCT006 OVC035 06/06 A2991 RMK VIS VRB 2-3 PRESFR SLP132
  • 240300Z AUTO 10017G26KT 1 3/4SM RA BR BKN006 OVC020 06/06 A2996 RMK PRESFR SLP146
  • 240241Z AUTO 11015G23KT 2SM RA BR BKN006 OVC016 06/06 A2998 RMK PRESFR SLP155
  • 240231Z AUTO 11019G24KT 5SM -RA BR BKN006 OVC014 06/06 A2999 RMK SLP158
  • 240221Z AUTO 11016G22KT 3SM -RA BR BKN008 OVC016 06/06 A3000 RMK PRESFR SLP161
  • 240200Z AUTO 12016G21KT 4SM -RA BR OVC012 06/06 A3003 RMK PRESFR SLP170
  • 240146Z AUTO 12014G21KT 5SM -RA BR OVC014 07/05 A3004 RMK SLP174
  • 240125Z AUTO 11015KT 9SM BKN016 OVC025 07/05 A3005 RMK SLP177
  • 240100Z AUTO 11017G26KT 9SM FEW016 OVC025 07/05 A3003 RMK SLP173

TAF AMD TAF CYNA
Valid from the 24 at 02:00 until the 24 at 14:00 UTC


240251Z 2402/2414 12015G25KT 2SM RA BR OVC005
TEMPO 2402/2412 6SM -RA BR OVC015
PROB30 2402/2408 1SM -RA BR OVC003
FM241200 26018G28KT 3SM BR OVC008
TEMPO 2412/2414 P6SM NSW OVC012
BECMG 2412/2414 26022G32KT RMK FCST BASED ON AUTO OBS. NXT FCST BY 240800Z



MET'MAP, your aeronautical weather chart ! - Copyright ORBIFLY December 2007 - Disclaimer

ORBIFLY MET'MAP TEAM :

Programming & Development : Alexandra Zaïnal
Concept & Development : Baudouin d'Aumeries
Co-Development & Prog : Marc-Olivier Méhu
Technical & hardware support : Manuel Goepfert

Contact : metmap@orbifly.com




SOURCES & CREDITS :

   NOAA